Time,TemperatureF,DewpointF,PressureIn,WindDirection,WindDirectionDegrees,WindSpeedMPH,WindSpeedGustMPH,Humidity,HourlyPrecipIn,Conditions,Clouds,dailyrainin,SoftwareType,DateUTC
2013-02-12 00:01:00,51.0,51.0,-100.00,WNW,300,2.0,4.0,99,-99.99,,,-99.99,,2013-02-12 05:01:00,
2013-02-12 00:11:00,51.0,51.0,-100.00,NW,325,1.0,4.0,99,-99.99,,,-99.99,,2013-02-12 05:11:00,
2013-02-12 00:21:00,51.0,51.0,-100.00,West,275,2.0,4.0,99,-99.99,,,-99.99,,2013-02-12 05:21:00,
2013-02-12 00:32:00,51.0,51.0,-100.00,West,270,4.0,8.0,99,-99.99,,,-99.99,,2013-02-12 05:32:00,
2013-02-12 00:42:00,51.0,51.0,-100.00,West,270,4.0,8.0,99,-99.99,,,-99.99,,2013-02-12 05:42:00,
2013-02-12 00:52:00,51.0,51.0,-100.00,West,270,4.0,8.0,99,-99.99,,,-99.99,,2013-02-12 05:52:00,
2013-02-12 01:02:00,51.0,51.0,-100.00,NW,305,1.0,6.0,99,-99.99,,,-99.99,,2013-02-12 06:02:00,
2013-02-12 01:12:00,51.0,51.0,-100.00,NW,305,2.0,6.0,99,-99.99,,,-99.99,,2013-02-12 06:12:00,
2013-02-12 01:22:00,51.0,51.0,-100.00,West,265,3.0,6.0,99,-99.99,,,-99.99,,2013-02-12 06:22:00,
2013-02-12 01:32:00,51.0,51.0,-100.00,WNW,295,2.0,8.0,99,-99.99,,,-99.99,,2013-02-12 06:32:00,
2013-02-12 01:42:00,51.0,51.0,-100.00,NW,305,4.0,6.0,99,-99.99,,,-99.99,,2013-02-12 06:42:00,
2013-02-12 01:52:00,51.0,51.0,-100.00,NNW,330,1.0,5.0,99,-99.99,,,-99.99,,2013-02-12 06:52:00,
2013-02-12 02:02:00,51.0,50.0,-100.00,North,355,1.0,5.0,99,-99.99,,,-99.99,,2013-02-12 07:02:00,
2013-02-12 02:12:00,50.0,50.0,-100.00,NW,310,1.0,4.0,99,-99.99,,,-99.99,,2013-02-12 07:12:00,
2013-02-12 02:21:00,50.0,50.0,-100.00,NNW,330,3.0,5.0,99,-99.99,,,-99.99,,2013-02-12 07:21:00,
2013-02-12 02:32:00,50.0,50.0,-100.00,NW,315,2.0,5.0,99,-99.99,,,-99.99,,2013-02-12 07:32:00,
2013-02-12 02:42:00,50.0,50.0,-100.00,NNW,340,0.0,4.0,99,-99.99,,,-99.99,,2013-02-12 07:42:00,
2013-02-12 02:51:00,50.0,49.0,-100.00,NW,320,1.0,5.0,99,-99.99,,,-99.99,,2013-02-12 07:51:00,
2013-02-12 03:01:00,50.0,49.0,-100.00,North,355,1.0,6.0,99,-99.99,,,-99.99,,2013-02-12 08:01:00,
2013-02-12 03:11:00,50.0,49.0,-100.00,NNW,330,0.0,4.0,99,-99.99,,,-99.99,,2013-02-12 08:11:00,
2013-02-12 03:22:00,49.0,49.0,-100.00,NNW,335,1.0,4.0,98,-99.99,,,-99.99,,2013-02-12 08:22:00,
2013-02-12 03:32:00,49.0,48.0,-100.00,NNW,335,2.0,6.0,96,-99.99,,,-99.99,,2013-02-12 08:32:00,
2013-02-12 03:42:00,49.0,47.0,-100.00,NW,305,0.0,5.0,94,-99.99,,,-99.99,,2013-02-12 08:42:00,
2013-02-12 03:52:00,49.0,48.0,-100.00,NW,320,1.0,5.0,95,-99.99,,,-99.99,,2013-02-12 08:52:00,
2013-02-12 04:02:00,49.0,48.0,-100.00,WNW,290,1.0,4.0,95,-99.99,,,-99.99,,2013-02-12 09:02:00,
2013-02-12 04:11:00,48.0,47.0,-100.00,ENE,70,0.0,2.0,96,-99.99,,,-99.99,,2013-02-12 09:11:00,
2013-02-12 04:20:00,47.0,47.0,-100.00,NW,305,1.0,2.0,99,-99.99,,,-99.99,,2013-02-12 09:20:00,
2013-02-12 04:22:00,48.0,47.0,-100.00,SE,130,1.0,2.0,98,-99.99,,,-99.99,,2013-02-12 09:22:00,
2013-02-12 04:32:00,48.0,47.0,-100.00,SW,235,1.0,3.0,99,-99.99,,,-99.99,,2013-02-12 09:32:00,
2013-02-12 04:42:00,47.0,47.0,-100.00,SSW,195,0.0,2.0,99,-99.99,,,-99.99,,2013-02-12 09:42:00,
2013-02-12 04:51:00,47.0,47.0,-100.00,NW,305,1.0,2.0,99,-99.99,,,-99.99,,2013-02-12 09:51:00,
2013-02-12 05:02:00,47.0,47.0,-100.00,NW,305,1.0,2.0,99,-99.99,,,-99.99,,2013-02-12 10:02:00,
2013-02-12 05:11:00,47.0,47.0,-100.00,NW,305,1.0,2.0,99,-99.99,,,-99.99,,2013-02-12 10:11:00,
2013-02-12 08:42:00,45.0,42.0,-100.00,SSE,165,1.0,1.0,89,-99.99,,,-99.99,,2013-02-12 13:42:00,
2013-02-12 08:52:00,45.0,41.0,-100.00,SW,215,1.0,3.0,86,-99.99,,,-99.99,,2013-02-12 13:52:00,
2013-02-12 09:01:00,46.0,40.0,-100.00,SW,230,1.0,2.0,79,-99.99,,,-99.99,,2013-02-12 14:01:00,
2013-02-12 09:12:00,47.0,40.0,-100.00,SSE,150,0.0,1.0,76,-99.99,,,-99.99,,2013-02-12 14:12:00,
2013-02-12 09:22:00,50.0,39.0,-100.00,WSW,250,1.0,2.0,65,-99.99,,,-99.99,,2013-02-12 14:22:00,
2013-02-12 09:32:00,51.0,36.0,-100.00,East,90,1.0,2.0,55,-99.99,,,-99.99,,2013-02-12 14:32:00,
2013-02-12 09:42:00,51.0,34.0,-100.00,East,95,1.0,4.0,52,-99.99,,,-99.99,,2013-02-12 14:42:00,
2013-02-12 09:52:00,51.0,31.0,-100.00,East,80,4.0,6.0,46,-99.99,,,-99.99,,2013-02-12 14:52:00,
2013-02-12 10:02:00,51.0,30.0,-100.00,East,90,1.0,6.0,44,-99.99,,,-99.99,,2013-02-12 15:02:00,
2013-02-12 10:11:00,52.0,30.0,-100.00,ESE,110,1.0,6.0,42,-99.99,,,-99.99,,2013-02-12 15:11:00,
2013-02-12 10:21:00,54.0,30.0,-100.00,East,95,2.0,6.0,41,-99.99,,,-99.99,,2013-02-12 15:21:00,
2013-02-12 10:32:00,55.0,31.0,-100.00,NE,55,1.0,6.0,39,-99.99,,,-99.99,,2013-02-12 15:32:00,
2013-02-12 10:42:00,57.0,31.0,-100.00,ENE,75,1.0,4.0,37,-99.99,,,-99.99,,2013-02-12 15:42:00,
2013-02-12 10:52:00,58.0,31.0,-100.00,East,100,3.0,6.0,36,-99.99,,,-99.99,,2013-02-12 15:52:00,
2013-02-12 11:02:00,58.0,30.0,-100.00,North,0,1.0,4.0,35,-99.99,,,-99.99,,2013-02-12 16:02:00,
2013-02-12 11:11:00,58.0,30.0,-100.00,East,85,3.0,7.0,34,-99.99,,,-99.99,,2013-02-12 16:11:00,
2013-02-12 11:22:00,60.0,31.0,-100.00,East,90,1.0,6.0,33,-99.99,,,-99.99,,2013-02-12 16:22:00,
2013-02-12 11:32:00,60.0,30.0,-100.00,East,100,4.0,9.0,32,-99.99,,,-99.99,,2013-02-12 16:32:00,
2013-02-12 11:42:00,61.0,30.0,-100.00,East,80,4.0,8.0,31,-99.99,,,-99.99,,2013-02-12 16:42:00,
2013-02-12 11:52:00,61.0,30.0,-100.00,North,0,4.0,8.0,30,-99.99,,,-99.99,,2013-02-12 16:52:00,
2013-02-12 12:01:00,62.0,29.0,-100.00,North,10,1.0,6.0,29,-99.99,,,-99.99,,2013-02-12 17:01:00,
2013-02-12 12:12:00,63.0,29.0,-100.00,East,90,1.0,4.0,28,-99.99,,,-99.99,,2013-02-12 17:12:00,
2013-02-12 12:21:00,62.0,28.0,-100.00,South,170,1.0,2.0,28,-99.99,,,-99.99,,2013-02-12 17:21:00,
2013-02-12 12:32:00,63.0,28.0,-100.00,SSE,150,0.0,2.0,27,-99.99,,,-99.99,,2013-02-12 17:32:00,
2013-02-12 12:42:00,61.0,27.0,-100.00,SE,145,1.0,9.0,27,-99.99,,,-99.99,,2013-02-12 17:42:00,
2013-02-12 12:52:00,61.0,27.0,-100.00,SE,140,1.0,4.0,27,-99.99,,,-99.99,,2013-02-12 17:52:00,
2013-02-12 13:02:00,61.0,27.0,-100.00,ESE,105,1.0,4.0,27,-99.99,,,-99.99,,2013-02-12 18:02:00,
2013-02-12 13:12:00,61.0,27.0,-100.00,SE,145,1.0,5.0,27,-99.99,,,-99.99,,2013-02-12 18:12:00,
2013-02-12 13:23:00,61.0,26.0,-100.00,ESE,105,0.0,3.0,27,-99.99,,,-99.99,,2013-02-12 18:23:00,
2013-02-12 13:32:00,61.0,26.0,-100.00,ESE,105,0.0,3.0,27,-99.99,,,-99.99,,2013-02-12 18:32:00,
2013-02-12 13:42:00,60.0,26.0,-100.00,South,180,2.0,6.0,27,-99.99,,,-99.99,,2013-02-12 18:42:00,
2013-02-12 13:51:00,60.0,26.0,-100.00,SSE,155,4.0,6.0,27,-99.99,,,-99.99,,2013-02-12 18:51:00,
2013-02-12 14:02:00,60.0,26.0,-100.00,South,175,4.0,6.0,27,-99.99,,,-99.99,,2013-02-12 19:02:00,
2013-02-12 14:11:00,60.0,26.0,-100.00,SSE,160,1.0,5.0,27,-99.99,,,-99.99,,2013-02-12 19:11:00,
2013-02-12 14:21:00,61.0,26.0,-100.00,SSE,165,3.0,7.0,27,-99.99,,,-99.99,,2013-02-12 19:21:00,
2013-02-12 14:32:00,61.0,27.0,-100.00,West,260,4.0,9.0,27,-99.99,,,-99.99,,2013-02-12 19:32:00,
2013-02-12 14:42:00,61.0,26.0,-100.00,WNW,285,2.0,8.0,26,-99.99,,,-99.99,,2013-02-12 19:42:00,
2013-02-12 14:51:00,61.0,26.0,-100.00,WSW,250,1.0,5.0,26,-99.99,,,-99.99,,2013-02-12 19:51:00,
2013-02-12 15:01:00,61.0,26.0,-100.00,WSW,240,4.0,5.0,26,-99.99,,,-99.99,,2013-02-12 20:01:00,
2013-02-12 15:11:00,60.0,25.0,-100.00,South,190,1.0,4.0,26,-99.99,,,-99.99,,2013-02-12 20:11:00,
2013-02-12 15:21:00,60.0,26.0,-100.00,SW,235,3.0,4.0,27,-99.99,,,-99.99,,2013-02-12 20:21:00,
2013-02-12 15:32:00,60.0,26.0,-100.00,SW,235,3.0,4.0,27,-99.99,,,-99.99,,2013-02-12 20:32:00,
2013-02-12 15:41:00,60.0,26.0,-100.00,WSW,250,2.0,5.0,27,-99.99,,,-99.99,,2013-02-12 20:41:00,
2013-02-12 15:52:00,59.0,25.0,-100.00,WSW,240,4.0,6.0,27,-99.99,,,-99.99,,2013-02-12 20:52:00,
2013-02-12 16:02:00,59.0,25.0,-100.00,West,265,1.0,4.0,27,-99.99,,,-99.99,,2013-02-12 21:02:00,
2013-02-12 16:11:00,59.0,25.0,-100.00,West,275,1.0,4.0,27,-99.99,,,-99.99,,2013-02-12 21:11:00,
2013-02-12 16:21:00,59.0,25.0,-100.00,West,270,3.0,5.0,27,-99.99,,,-99.99,,2013-02-12 21:21:00,
2013-02-12 16:32:00,59.0,26.0,-100.00,NW,320,2.0,5.0,28,-99.99,,,-99.99,,2013-02-12 21:32:00,
2013-02-12 16:42:00,59.0,26.0,-100.00,NW,325,4.0,7.0,28,-99.99,,,-99.99,,2013-02-12 21:42:00,
2013-02-12 16:51:00,59.0,26.0,-100.00,NNW,335,3.0,6.0,28,-99.99,,,-99.99,,2013-02-12 21:51:00,
2013-02-12 17:01:00,58.0,26.0,-100.00,WNW,300,0.0,6.0,29,-99.99,,,-99.99,,2013-02-12 22:01:00,
2013-02-12 17:12:00,58.0,27.0,-100.00,NW,310,2.0,5.0,30,-99.99,,,-99.99,,2013-02-12 22:12:00,
2013-02-12 17:21:00,58.0,27.0,-100.00,WNW,285,1.0,4.0,30,-99.99,,,-99.99,,2013-02-12 22:21:00,
2013-02-12 17:32:00,58.0,27.0,-100.00,South,190,1.0,4.0,31,-99.99,,,-99.99,,2013-02-12 22:32:00,
2013-02-12 17:42:00,58.0,27.0,-100.00,NW,325,0.0,2.0,31,-99.99,,,-99.99,,2013-02-12 22:42:00,
2013-02-12 17:52:00,58.0,28.0,-100.00,NW,320,2.0,4.0,32,-99.99,,,-99.99,,2013-02-12 22:52:00,
2013-02-12 18:02:00,57.0,28.0,-100.00,NNE,15,2.0,4.0,32,-99.99,,,-99.99,,2013-02-12 23:02:00,
2013-02-12 18:11:00,57.0,28.0,-100.00,ESE,120,1.0,5.0,33,-99.99,,,-99.99,,2013-02-12 23:11:00,
2013-02-12 18:21:00,56.0,29.0,-100.00,East,85,3.0,5.0,35,-99.99,,,-99.99,,2013-02-12 23:21:00,
2013-02-12 18:32:00,55.0,29.0,-100.00,East,85,1.0,4.0,37,-99.99,,,-99.99,,2013-02-12 23:32:00,
2013-02-12 18:42:00,55.0,29.0,-100.00,ESE,110,1.0,3.0,37,-99.99,,,-99.99,,2013-02-12 23:42:00,
2013-02-12 18:52:00,55.0,30.0,-100.00,East,90,1.0,6.0,39,-99.99,,,-99.99,,2013-02-12 23:52:00,
2013-02-12 19:02:00,55.0,31.0,-100.00,SE,140,1.0,3.0,40,-99.99,,,-99.99,,2013-02-13 00:02:00,
2013-02-12 19:11:00,55.0,31.0,-100.00,SW,225,1.0,3.0,40,-99.99,,,-99.99,,2013-02-13 00:11:00,
2013-02-12 19:22:00,55.0,31.0,-100.00,NW,310,2.0,4.0,40,-99.99,,,-99.99,,2013-02-13 00:22:00,
2013-02-12 19:32:00,55.0,31.0,-100.00,NW,310,2.0,4.0,40,-99.99,,,-99.99,,2013-02-13 00:32:00,
2013-02-12 19:52:00,54.0,34.0,-100.00,SSW,210,1.0,2.0,48,-99.99,,,-99.99,,2013-02-13 00:52:00,
2013-02-12 20:01:00,53.0,36.0,-100.00,SE,125,1.0,5.0,54,-99.99,,,-99.99,,2013-02-13 01:01:00,
2013-02-12 20:11:00,52.0,38.0,-100.00,East,80,1.0,1.0,58,-99.99,,,-99.99,,2013-02-13 01:11:00,
2013-02-12 20:21:00,51.0,39.0,-100.00,ENE,70,1.0,1.0,63,-99.99,,,-99.99,,2013-02-13 01:21:00,
2013-02-12 20:32:00,51.0,41.0,-100.00,NW,315,1.0,3.0,68,-99.99,,,-99.99,,2013-02-13 01:32:00,
2013-02-12 20:42:00,50.0,43.0,-100.00,South,180,1.0,6.0,77,-99.99,,,-99.99,,2013-02-13 01:42:00,
2013-02-12 20:52:00,49.0,44.0,-100.00,WSW,255,0.0,4.0,83,-99.99,,,-99.99,,2013-02-13 01:52:00,
2013-02-12 21:01:00,49.0,46.0,-100.00,SW,215,1.0,2.0,88,-99.99,,,-99.99,,2013-02-13 02:01:00,
2013-02-12 21:11:00,49.0,46.0,-100.00,ESE,115,0.0,1.0,90,-99.99,,,-99.99,,2013-02-13 02:11:00,
2013-02-12 21:22:00,49.0,46.0,-100.00,ESE,115,1.0,2.0,91,-99.99,,,-99.99,,2013-02-13 02:22:00,
2013-02-12 21:32:00,48.0,46.0,-100.00,ENE,75,1.0,2.0,93,-99.99,,,-99.99,,2013-02-13 02:32:00,
2013-02-12 21:42:00,48.0,47.0,-100.00,ENE,75,0.0,4.0,94,-99.99,,,-99.99,,2013-02-13 02:42:00,
2013-02-12 21:52:00,48.0,47.0,-100.00,WNW,300,0.0,3.0,95,-99.99,,,-99.99,,2013-02-13 02:52:00,
2013-02-12 22:01:00,48.0,47.0,-100.00,North,10,1.0,4.0,96,-99.99,,,-99.99,,2013-02-13 03:01:00,
2013-02-12 22:12:00,48.0,48.0,-100.00,SSE,165,1.0,4.0,98,-99.99,,,-99.99,,2013-02-13 03:12:00,
2013-02-12 22:21:00,48.0,48.0,-100.00,East,85,1.0,2.0,99,-99.99,,,-99.99,,2013-02-13 03:21:00,
2013-02-12 22:32:00,48.0,48.0,-100.00,East,80,3.0,5.0,99,-99.99,,,-99.99,,2013-02-13 03:32:00,
2013-02-12 22:42:00,48.0,48.0,-100.00,South,190,0.0,4.0,99,-99.99,,,-99.99,,2013-02-13 03:42:00,
2013-02-12 22:51:00,48.0,47.0,-100.00,NW,305,6.0,8.0,99,-99.99,,,-99.99,,2013-02-13 03:51:00,
2013-02-12 23:01:00,48.0,47.0,-100.00,ESE,120,2.0,6.0,99,-99.99,,,-99.99,,2013-02-13 04:01:00,
2013-02-12 23:11:00,47.0,47.0,-100.00,NW,325,2.0,8.0,99,-99.99,,,-99.99,,2013-02-13 04:11:00,
2013-02-12 23:21:00,47.0,46.0,-100.00,North,10,1.0,7.0,99,-99.99,,,-99.99,,2013-02-13 04:21:00,
2013-02-12 23:32:00,46.0,46.0,-100.00,SSW,205,0.0,5.0,99,-99.99,,,-99.99,,2013-02-13 04:32:00,
2013-02-12 23:42:00,46.0,46.0,-100.00,ENE,60,0.0,4.0,99,-99.99,,,-99.99,,2013-02-13 04:42:00,
2013-02-12 23:51:00,46.0,46.0,-100.00,East,100,1.0,5.0,99,-99.99,,,-99.99,,2013-02-13 04:51:00,